Time;durP1;ratioP1;P1;durP2;ratioP2;P2;SDS_P1;SDS_P2;PMS_P1;PMS_P2;Temp;Humidity;BMP_temperature;BMP_pressure;BME280_temperature;BME280_humidity;BME280_pressure;Samples;Min_cycle;Max_cycle;Signal;HPM_P1;HPM_P2
2021/12/08 00:00:37;;;;;;;3.87;1.80;;;4.90;99.90;;;;;;5032490;28;20181;-47
2021/12/08 00:03:06;;;;;;;3.37;1.53;;;4.90;99.90;;;;;;5032523;28;20665;-47
2021/12/08 00:05:32;;;;;;;3.27;1.57;;;4.90;99.90;;;;;;5033594;28;20272;-46
2021/12/08 00:07:59;;;;;;;2.93;1.77;;;4.90;99.90;;;;;;5032091;28;20210;-47
2021/12/08 00:10:51;;;;;;;3.23;1.47;;;4.90;99.90;;;;;;5015741;28;20279;-45
2021/12/08 00:13:13;;;;;;;2.33;1.27;;;4.90;99.90;;;;;;5033352;28;20299;-48
2021/12/08 00:15:42;;;;;;;5.93;1.17;;;4.80;99.90;;;;;;5033324;28;20583;-47
2021/12/08 00:18:14;;;;;;;3.13;1.40;;;4.80;99.90;;;;;;5033549;28;20201;-46
2021/12/08 00:20:46;;;;;;;4.30;0.90;;;4.80;99.90;;;;;;5033418;28;20196;-47
2021/12/08 00:23:12;;;;;;;4.00;1.63;;;5.00;99.90;;;;;;5033365;28;20164;-46
2021/12/08 00:25:38;;;;;;;4.90;1.47;;;4.80;99.90;;;;;;5033251;28;20177;-46
2021/12/08 00:28:06;;;;;;;3.57;1.40;;;4.80;99.90;;;;;;5033800;28;20187;-46
2021/12/08 00:30:33;;;;;;;3.27;1.27;;;4.80;99.90;;;;;;5033176;28;20180;-47
2021/12/08 00:32:59;;;;;;;3.03;1.40;;;4.80;99.90;;;;;;5031910;28;20236;-48
2021/12/08 00:35:27;;;;;;;1.27;1.17;;;4.90;99.90;;;;;;5032010;28;20215;-46
2021/12/08 00:37:54;;;;;;;2.87;1.33;;;4.80;99.90;;;;;;5031802;28;20709;-46
2021/12/08 00:40:20;;;;;;;5.23;1.17;;;4.90;99.90;;;;;;5033681;28;20172;-45
2021/12/08 00:42:47;;;;;;;3.13;1.30;;;4.80;99.90;;;;;;5033326;28;20316;-48
2021/12/08 00:45:14;;;;;;;2.60;1.40;;;4.80;99.90;;;;;;5033078;28;20258;-46
2021/12/08 00:47:40;;;;;;;1.80;1.20;;;4.80;99.90;;;;;;5033428;28;20173;-47
2021/12/08 00:50:09;;;;;;;1.23;1.13;;;4.80;99.90;;;;;;5033408;28;20627;-46
2021/12/08 00:52:35;;;;;;;3.37;1.50;;;4.80;99.90;;;;;;5031666;28;20296;-47
2021/12/08 00:55:02;;;;;;;2.67;1.30;;;4.80;99.90;;;;;;5031815;28;20582;-47
2021/12/08 00:57:28;;;;;;;1.37;1.20;;;4.80;99.90;;;;;;5032791;28;20217;-47
2021/12/08 00:59:54;;;;;;;3.07;1.47;;;4.80;99.90;;;;;;5033247;28;20235;-48
2021/12/08 01:02:19;;;;;;;2.80;1.50;;;4.90;99.90;;;;;;5033136;28;20279;-46
2021/12/08 01:04:45;;;;;;;1.90;1.23;;;4.90;99.90;;;;;;5033244;28;20177;-47
2021/12/08 01:07:11;;;;;;;2.83;1.60;;;4.90;99.90;;;;;;5033513;28;20255;-45
2021/12/08 01:09:36;;;;;;;6.40;1.60;;;4.90;99.90;;;;;;5031588;28;20744;-47
2021/12/08 01:12:04;;;;;;;3.00;1.80;;;4.90;99.90;;;;;;5032862;28;20240;-48
2021/12/08 01:14:31;;;;;;;2.60;1.60;;;4.90;99.90;;;;;;5033117;28;20189;-46
2021/12/08 01:16:57;;;;;;;2.77;1.60;;;4.90;99.90;;;;;;5032782;28;20231;-49
2021/12/08 01:19:23;;;;;;;4.17;1.63;;;5.00;99.90;;;;;;5033073;28;20181;-46
2021/12/08 01:21:49;;;;;;;2.33;1.80;;;5.00;99.90;;;;;;5032904;28;20193;-46
2021/12/08 01:24:14;;;;;;;4.33;1.73;;;5.00;99.90;;;;;;5031561;28;20177;-48
2021/12/08 01:26:40;;;;;;;0.80;0.73;;;5.10;99.90;;;;;;5032734;28;20227;-47
2021/12/08 01:29:07;;;;;;;0.87;0.70;;;5.10;99.90;;;;;;5035503;28;20177;-46
2021/12/08 01:31:35;;;;;;;1.17;0.90;;;5.20;99.90;;;;;;5036133;28;20674;-47
2021/12/08 01:34:00;;;;;;;1.70;0.70;;;5.20;99.90;;;;;;5035091;28;20173;-46
2021/12/08 01:36:26;;;;;;;0.87;0.67;;;5.30;99.90;;;;;;5036547;28;20532;-48
2021/12/08 01:38:51;;;;;;;1.40;0.97;;;5.40;99.90;;;;;;5036289;28;20177;-48
2021/12/08 01:41:17;;;;;;;0.53;0.53;;;5.50;99.90;;;;;;5036433;28;20254;-48
2021/12/08 01:45:56;;;;;;;0.90;0.80;;;5.50;99.90;;;;;;5036577;28;20180;-47
2021/12/08 01:46:30;;;;;;;0.70;0.57;;;5.60;99.90;;;;;;5035929;28;20654;-47
2021/12/08 01:48:56;;;;;;;1.07;0.67;;;5.60;99.90;;;;;;5036386;28;20591;-46
2021/12/08 01:51:25;;;;;;;0.67;0.60;;;5.60;99.90;;;;;;5036306;28;20233;-47
2021/12/08 01:53:54;;;;;;;0.50;0.50;;;5.60;99.90;;;;;;5036224;28;20229;-47
2021/12/08 01:56:23;;;;;;;1.53;0.70;;;5.60;99.90;;;;;;5036298;28;20181;-46
2021/12/08 01:58:50;;;;;;;0.97;0.80;;;5.60;99.90;;;;;;5035776;28;20728;-47
2021/12/08 02:01:18;;;;;;;0.60;0.60;;;5.60;99.90;;;;;;5035800;28;20197;-48
2021/12/08 02:03:46;;;;;;;3.17;1.33;;;5.60;99.90;;;;;;5035848;28;20295;-48
2021/12/08 02:06:13;;;;;;;0.70;0.60;;;5.60;99.90;;;;;;5035918;28;20520;-47
2021/12/08 02:08:39;;;;;;;0.60;0.57;;;5.70;99.90;;;;;;5035975;28;20211;-47
2021/12/08 02:11:06;;;;;;;1.13;0.60;;;5.70;99.90;;;;;;5035702;28;20201;-46
2021/12/08 02:13:38;;;;;;;0.87;0.73;;;5.70;99.90;;;;;;5035892;28;20188;-46
2021/12/08 02:16:08;;;;;;;2.10;0.73;;;5.70;99.90;;;;;;5035655;28;20570;-47
2021/12/08 02:18:35;;;;;;;3.53;0.80;;;5.70;99.90;;;;;;5035682;28;20212;-47
2021/12/08 02:21:04;;;;;;;0.70;0.63;;;5.70;99.90;;;;;;5035578;28;20177;-48
2021/12/08 02:23:31;;;;;;;1.83;0.80;;;5.70;99.90;;;;;;5017874;28;20570;-46
2021/12/08 02:25:58;;;;;;;1.97;0.90;;;5.70;99.90;;;;;;5035642;28;20583;-47
2021/12/08 02:28:24;;;;;;;0.90;0.60;;;5.70;99.90;;;;;;5035381;28;20180;-47
2021/12/08 02:30:57;;;;;;;3.07;1.00;;;5.70;99.90;;;;;;5035274;28;20192;-48
2021/12/08 02:47:16;;;;;;;0.97;0.60;;;5.80;99.90;;;;;;5035688;28;20260;-49
2021/12/08 02:49:42;;;;;;;2.00;0.90;;;5.80;99.90;;;;;;5018839;28;20211;-47
2021/12/08 02:52:10;;;;;;;1.33;0.80;;;5.80;99.90;;;;;;5042607;28;20205;-48
2021/12/08 02:54:45;;;;;;;3.70;1.17;;;5.80;99.90;;;;;;5021978;28;20185;-46
2021/12/08 02:57:13;;;;;;;5.63;1.47;;;5.80;99.90;;;;;;5035104;28;20201;-45
2021/12/08 02:59:40;;;;;;;5.47;1.40;;;5.80;99.90;;;;;;5034961;28;20209;-47
2021/12/08 03:02:06;;;;;;;5.50;1.33;;;5.80;99.90;;;;;;5016922;28;20235;-47
2021/12/08 03:04:31;;;;;;;4.13;1.17;;;5.80;99.90;;;;;;5034846;28;20249;-48
2021/12/08 03:06:57;;;;;;;3.27;0.83;;;5.80;99.90;;;;;;5017026;28;20181;-46
2021/12/08 03:09:23;;;;;;;5.00;1.33;;;5.90;99.90;;;;;;5034567;28;20235;-47
2021/12/08 03:11:53;;;;;;;5.13;1.50;;;5.90;99.90;;;;;;5034650;28;20678;-47
2021/12/08 03:14:19;;;;;;;8.33;1.60;;;5.90;99.90;;;;;;5034687;28;20277;-48
2021/12/08 03:16:50;;;;;;;6.47;2.00;;;5.90;99.90;;;;;;5016581;28;20181;-47
2021/12/08 03:19:17;;;;;;;7.70;1.30;;;6.00;99.90;;;;;;5034381;28;20165;-48
2021/12/08 03:21:43;;;;;;;6.87;1.50;;;6.00;99.90;;;;;;5034244;28;20201;-47
2021/12/08 03:24:22;;;;;;;3.90;1.07;;;6.00;99.90;;;;;;5034235;28;20172;-46
2021/12/08 03:27:08;;;;;;;3.57;1.20;;;6.10;99.90;;;;;;5034527;28;20172;-47
2021/12/08 03:29:48;;;;;;;3.90;1.30;;;6.10;99.90;;;;;;5034610;28;20181;-46
2021/12/08 03:32:17;;;;;;;4.93;1.20;;;6.10;99.90;;;;;;5016382;28;20211;-47
2021/12/08 03:34:52;;;;;;;4.63;1.20;;;6.10;99.90;;;;;;5034055;28;20187;-46
2021/12/08 03:37:25;;;;;;;8.27;1.30;;;6.20;99.90;;;;;;5034204;28;20298;-45
2021/12/08 03:39:51;;;;;;;5.77;1.20;;;6.20;99.90;;;;;;5033951;28;20165;-47
2021/12/08 03:42:20;;;;;;;4.47;1.53;;;6.20;99.90;;;;;;5034036;28;20557;-48
2021/12/08 03:44:47;;;;;;;3.47;1.20;;;6.20;99.90;;;;;;5034158;28;20181;-46
2021/12/08 03:47:18;;;;;;;4.63;1.30;;;6.20;99.90;;;;;;5034080;28;20185;-46
2021/12/08 03:49:48;;;;;;;8.73;1.87;;;6.10;99.90;;;;;;5033872;28;20189;-47
2021/12/08 03:52:14;;;;;;;7.57;1.67;;;6.10;99.90;;;;;;5033558;28;20205;-47
2021/12/08 03:54:40;;;;;;;5.90;1.30;;;6.10;99.90;;;;;;5033767;28;20223;-45
2021/12/08 03:57:06;;;;;;;15.27;1.77;;;6.00;99.90;;;;;;5033658;28;20211;-47
2021/12/08 03:59:32;;;;;;;8.43;1.50;;;6.00;99.90;;;;;;5033641;28;20186;-47
2021/12/08 04:01:58;;;;;;;5.90;1.10;;;5.90;99.90;;;;;;5033705;28;20197;-46
2021/12/08 04:04:28;;;;;;;6.47;1.57;;;5.80;99.90;;;;;;5034290;28;20538;-48
2021/12/08 04:06:56;;;;;;;9.00;1.60;;;5.80;99.90;;;;;;5033959;28;20567;-46
2021/12/08 04:09:30;;;;;;;5.63;1.40;;;5.70;99.90;;;;;;5033429;28;20200;-46
2021/12/08 04:11:57;;;;;;;2.13;1.00;;;5.70;99.90;;;;;;5015855;28;20205;-47
2021/12/08 04:14:25;;;;;;;9.60;1.50;;;5.70;99.90;;;;;;5033556;28;20286;-48
2021/12/08 04:17:00;;;;;;;8.43;1.23;;;5.70;99.90;;;;;;5033852;28;20176;-47
2021/12/08 04:19:27;;;;;;;7.50;1.40;;;5.70;99.90;;;;;;5033683;28;20181;-40
2021/12/08 04:21:57;;;;;;;11.87;1.90;;;5.70;99.90;;;;;;5033341;28;20271;-43
2021/12/08 04:24:23;;;;;;;7.03;1.67;;;5.70;99.90;;;;;;5033858;28;20191;-42
2021/12/08 04:27:01;;;;;;;9.43;1.37;;;5.70;99.90;;;;;;5033679;28;20181;-42
2021/12/08 04:29:32;;;;;;;6.83;1.00;;;5.70;99.90;;;;;;5033253;28;20625;-41
2021/12/08 04:31:58;;;;;;;10.73;1.50;;;5.70;99.90;;;;;;5033488;28;20216;-44
2021/12/08 04:34:29;;;;;;;9.90;1.97;;;5.70;99.90;;;;;;5033553;28;20576;-41
2021/12/08 04:37:01;;;;;;;4.60;1.20;;;5.80;99.90;;;;;;5033417;28;20282;-41
2021/12/08 04:39:33;;;;;;;11.03;1.57;;;5.80;99.90;;;;;;5033246;28;20208;-43
2021/12/08 04:42:05;;;;;;;6.30;1.37;;;5.80;99.90;;;;;;5015534;28;20204;-41
2021/12/08 04:44:46;;;;;;;6.33;1.60;;;5.70;99.90;;;;;;5015574;28;20177;-42
2021/12/08 05:08:20;;;;;;;7.77;1.40;;;5.10;99.90;;;;;;5037045;28;20235;-41
2021/12/08 05:10:48;;;;;;;5.23;1.67;;;5.10;99.90;;;;;;5037123;28;20252;-42
2021/12/08 05:13:19;;;;;;;3.70;1.17;;;5.00;99.90;;;;;;5036913;28;20181;-43
2021/12/08 05:15:49;;;;;;;7.70;2.03;;;5.00;99.90;;;;;;5037156;28;20590;-40
2021/12/08 05:18:23;;;;;;;5.33;1.60;;;5.00;99.90;;;;;;5037260;28;20193;-44
2021/12/08 05:20:52;;;;;;;6.40;1.40;;;4.90;99.90;;;;;;5036761;28;20172;-42
2021/12/08 05:23:36;;;;;;;10.07;1.27;;;5.00;99.90;;;;;;5036846;28;20181;-42
2021/12/08 05:26:10;;;;;;;7.67;1.40;;;4.90;99.90;;;;;;5037154;28;20161;-41
2021/12/08 05:28:38;;;;;;;6.27;1.67;;;5.00;99.90;;;;;;5018958;28;20184;-40
2021/12/08 05:31:16;;;;;;;4.47;1.17;;;5.00;99.90;;;;;;5036750;28;20350;-43
2021/12/08 05:33:44;;;;;;;7.63;1.50;;;5.00;99.90;;;;;;5036875;28;20327;-43
2021/12/08 05:36:11;;;;;;;7.37;1.50;;;5.00;99.90;;;;;;5018924;28;20556;-44
2021/12/08 05:38:38;;;;;;;8.50;1.40;;;5.00;99.90;;;;;;5018847;28;20208;-44
2021/12/08 05:41:12;;;;;;;6.57;1.40;;;5.00;99.90;;;;;;5019220;28;20231;-41
2021/12/08 05:43:38;;;;;;;5.37;1.27;;;5.00;99.90;;;;;;5036755;28;20183;-42
2021/12/08 05:46:04;;;;;;;5.07;1.60;;;5.00;99.90;;;;;;5036440;28;20181;-42
2021/12/08 05:48:32;;;;;;;7.67;1.20;;;5.00;99.90;;;;;;5036854;28;20181;-42
2021/12/08 05:51:26;;;;;;;7.93;1.50;;;5.00;99.90;;;;;;5036231;28;20643;-42
2021/12/08 05:53:57;;;;;;;10.17;1.63;;;5.00;99.90;;;;;;5036700;28;20220;-44
2021/12/08 05:56:23;;;;;;;5.87;1.60;;;4.90;99.90;;;;;;5037282;28;20252;-42
2021/12/08 05:58:53;;;;;;;10.87;1.77;;;4.90;99.90;;;;;;5037678;28;20292;-44
2021/12/08 06:01:48;;;;;;;4.70;1.47;;;4.80;99.90;;;;;;5044007;28;20672;-41
2021/12/08 06:04:15;;;;;;;6.13;1.63;;;4.80;99.90;;;;;;5041496;28;20216;-42
2021/12/08 06:06:41;;;;;;;8.07;1.20;;;4.80;99.90;;;;;;5036153;28;20572;-45
2021/12/08 06:09:09;;;;;;;4.93;1.43;;;4.90;99.90;;;;;;5035763;28;20545;-42
2021/12/08 06:11:35;;;;;;;11.07;1.90;;;4.90;99.90;;;;;;5035720;28;20679;-42
2021/12/08 06:14:05;;;;;;;4.07;1.27;;;4.90;99.90;;;;;;5017774;28;20177;-44
2021/12/08 06:16:33;;;;;;;7.17;1.40;;;4.90;99.90;;;;;;5035923;28;20177;-42
2021/12/08 06:18:59;;;;;;;7.30;1.47;;;4.90;99.90;;;;;;5035888;28;20216;-43
2021/12/08 06:21:28;;;;;;;2.97;1.20;;;4.90;99.90;;;;;;5035894;28;20231;-44
2021/12/08 06:23:56;;;;;;;3.50;1.30;;;5.00;99.90;;;;;;5035862;28;20234;-42
2021/12/08 06:26:24;;;;;;;9.40;1.43;;;5.00;99.90;;;;;;5035789;28;20711;-43
2021/12/08 06:28:50;;;;;;;7.73;1.20;;;5.00;99.90;;;;;;5035961;28;20181;-45
2021/12/08 06:31:18;;;;;;;12.37;1.63;;;5.00;99.90;;;;;;5017714;28;20215;-41
2021/12/08 06:33:44;;;;;;;5.80;1.13;;;5.00;99.90;;;;;;5035431;28;20201;-43
2021/12/08 06:36:14;;;;;;;7.77;1.70;;;5.00;99.90;;;;;;5035521;28;20710;-42
2021/12/08 06:38:40;;;;;;;3.37;1.17;;;5.00;99.90;;;;;;5035466;28;20324;-42
2021/12/08 06:41:11;;;;;;;3.90;1.57;;;5.00;99.90;;;;;;5035013;28;20228;-43
2021/12/08 06:43:44;;;;;;;8.73;1.43;;;5.00;99.90;;;;;;5035377;28;20173;-41
2021/12/08 06:46:11;;;;;;;6.90;1.33;;;5.00;99.90;;;;;;5035205;28;20606;-43
2021/12/08 06:48:41;;;;;;;4.23;1.33;;;4.90;99.90;;;;;;5035272;28;20177;-39
2021/12/08 06:51:13;;;;;;;7.00;1.20;;;4.90;99.90;;;;;;5035133;28;20192;-41
2021/12/08 06:53:41;;;;;;;9.13;1.47;;;4.90;99.90;;;;;;5017379;28;20185;-41
2021/12/08 06:56:14;;;;;;;5.87;1.93;;;4.90;99.90;;;;;;5017197;28;20177;-43
2021/12/08 06:58:46;;;;;;;6.17;1.23;;;4.90;99.90;;;;;;5035289;28;20224;-42
2021/12/08 07:01:40;;;;;;;5.63;1.17;;;4.80;99.90;;;;;;5034837;28;20193;-40
2021/12/08 07:04:28;;;;;;;4.50;1.03;;;4.70;99.90;;;;;;5017081;28;20180;-41
2021/12/08 07:07:02;;;;;;;7.67;1.30;;;4.60;99.90;;;;;;5035242;28;20162;-40
2021/12/08 07:09:37;;;;;;;2.73;1.27;;;4.60;99.90;;;;;;5032288;28;20196;-41
2021/12/08 07:12:21;;;;;;;10.80;2.03;;;4.60;99.90;;;;;;5033355;28;20193;-43
2021/12/08 07:14:51;;;;;;;10.00;1.60;;;4.60;99.90;;;;;;5034710;28;20180;-41
2021/12/08 07:17:21;;;;;;;6.07;1.10;;;4.60;99.90;;;;;;5034535;28;20216;-43
2021/12/08 07:20:02;;;;;;;8.07;1.50;;;4.60;99.90;;;;;;5034738;28;20579;-40
2021/12/08 07:22:31;;;;;;;3.00;0.97;;;4.50;99.90;;;;;;5033088;28;20555;-42
2021/12/08 07:24:59;;;;;;;5.83;1.80;;;4.50;99.90;;;;;;5034186;28;20173;-42
2021/12/08 07:27:31;;;;;;;4.20;1.63;;;4.50;99.90;;;;;;5033737;28;20196;-40
2021/12/08 07:30:00;;;;;;;4.67;1.70;;;4.40;99.90;;;;;;5033563;28;20181;-39
2021/12/08 07:32:30;;;;;;;6.13;1.87;;;4.30;99.90;;;;;;5034325;28;20204;-41
2021/12/08 07:34:59;;;;;;;6.27;1.63;;;4.30;99.90;;;;;;5034088;28;20173;-42
2021/12/08 07:37:29;;;;;;;5.67;1.40;;;4.30;99.90;;;;;;5034461;28;20763;-40
2021/12/08 07:40:17;;;;;;;8.13;1.77;;;4.20;99.90;;;;;;5033914;28;20180;-41
2021/12/08 07:42:53;;;;;;;5.87;1.40;;;4.20;99.90;;;;;;5032602;28;20246;-41
2021/12/08 07:45:23;;;;;;;4.20;1.07;;;4.20;99.90;;;;;;5032638;28;20177;-41
2021/12/08 07:47:53;;;;;;;4.87;1.77;;;4.20;99.90;;;;;;5034221;28;20267;-42
2021/12/08 07:50:43;;;;;;;8.63;1.70;;;4.10;99.90;;;;;;5033729;28;20188;-43
2021/12/08 07:53:11;;;;;;;6.67;1.53;;;4.10;99.90;;;;;;5033787;28;20165;-40
2021/12/08 07:55:41;;;;;;;4.10;1.20;;;4.10;99.90;;;;;;5033598;28;20682;-43
2021/12/08 07:58:09;;;;;;;5.37;1.40;;;4.10;99.90;;;;;;5033927;28;20563;-42
2021/12/08 08:00:51;;;;;;;9.97;1.80;;;4.10;99.90;;;;;;5033886;28;20634;-41
2021/12/08 08:03:19;;;;;;;12.87;1.63;;;4.10;99.90;;;;;;5032440;28;20180;-40
2021/12/08 08:05:47;;;;;;;6.63;1.40;;;4.10;99.90;;;;;;5033810;28;20219;-40
2021/12/08 08:08:15;;;;;;;6.60;1.13;;;4.10;99.90;;;;;;5033478;28;20219;-41
2021/12/08 08:10:50;;;;;;;8.67;1.53;;;4.00;99.90;;;;;;5015736;28;20184;-43
2021/12/08 08:13:18;;;;;;;6.77;1.53;;;4.10;99.90;;;;;;5033744;28;20623;-42
2021/12/08 08:15:50;;;;;;;10.57;1.73;;;4.10;99.90;;;;;;5033672;28;20177;-43
2021/12/08 08:18:22;;;;;;;4.67;1.23;;;4.00;99.90;;;;;;5033363;28;20651;-43
2021/12/08 08:20:51;;;;;;;7.83;1.73;;;4.00;99.90;;;;;;5034482;28;20510;-41
2021/12/08 08:23:20;;;;;;;4.70;1.17;;;4.00;99.90;;;;;;5033503;28;20642;-41
2021/12/08 08:25:47;;;;;;;6.30;1.23;;;4.00;99.90;;;;;;5033560;28;20268;-42
2021/12/08 08:28:16;;;;;;;6.07;1.30;;;4.00;99.90;;;;;;5033518;28;20184;-41
2021/12/08 08:30:51;;;;;;;4.73;1.67;;;4.00;99.90;;;;;;5033698;28;20254;-43
2021/12/08 08:33:18;;;;;;;6.00;1.63;;;3.90;99.90;;;;;;5033562;28;20645;-43
2021/12/08 08:35:56;;;;;;;7.03;1.43;;;3.90;99.90;;;;;;5015554;28;20536;-43
2021/12/08 08:38:30;;;;;;;7.30;1.40;;;3.90;99.90;;;;;;5036708;28;20250;-44
2021/12/08 08:41:09;;;;;;;6.13;1.40;;;4.00;99.90;;;;;;5040152;28;20166;-48
2021/12/08 08:43:36;;;;;;;3.83;1.33;;;4.00;99.90;;;;;;5039875;28;20180;-48
2021/12/08 08:46:13;;;;;;;6.50;1.50;;;4.00;99.90;;;;;;5039925;28;20231;-47
2021/12/08 08:48:44;;;;;;;8.13;1.57;;;4.00;99.90;;;;;;5022349;28;20173;-47
2021/12/08 08:51:19;;;;;;;6.63;1.87;;;4.00;99.90;;;;;;5039420;28;20212;-46
2021/12/08 08:53:50;;;;;;;6.57;1.50;;;4.00;99.90;;;;;;5040017;28;20255;-46
2021/12/08 08:56:28;;;;;;;8.20;1.97;;;4.00;99.90;;;;;;5040574;28;20165;-46
2021/12/08 08:58:57;;;;;;;7.13;1.40;;;4.10;99.90;;;;;;5022009;28;20200;-47
2021/12/08 09:01:33;;;;;;;8.87;1.77;;;4.20;99.90;;;;;;5022502;28;20216;-47
2021/12/08 09:04:04;;;;;;;9.53;1.37;;;4.30;99.90;;;;;;5022315;28;20223;-47
2021/12/08 09:06:34;;;;;;;5.90;1.40;;;4.30;99.90;;;;;;5043354;28;20158;-46
2021/12/08 09:09:05;;;;;;;9.33;1.67;;;4.40;99.90;;;;;;5047982;28;20208;-48
2021/12/08 09:11:38;;;;;;;8.07;1.77;;;4.40;99.90;;;;;;5042872;28;20212;-46
2021/12/08 09:14:40;;;;;;;5.83;1.57;;;4.50;99.90;;;;;;5039671;28;20212;-47
2021/12/08 09:17:16;;;;;;;5.77;1.67;;;4.60;99.90;;;;;;5017515;28;20223;-48
2021/12/08 09:19:52;;;;;;;8.10;1.57;;;4.70;99.90;;;;;;5039321;28;20622;-46
2021/12/08 09:22:55;;;;;;;7.23;1.40;;;4.80;99.90;;;;;;5022080;28;20212;-49
2021/12/08 09:25:30;;;;;;;8.40;1.40;;;4.90;99.90;;;;;;5026213;28;20256;-47
2021/12/08 09:27:59;;;;;;;6.50;1.33;;;5.00;99.90;;;;;;5020956;28;20660;-46
2021/12/08 09:30:36;;;;;;;6.07;1.30;;;5.00;99.90;;;;;;5038476;28;20184;-47
2021/12/08 09:33:11;;;;;;;4.57;1.03;;;5.10;99.90;;;;;;5038651;28;20204;-48
2021/12/08 09:35:46;;;;;;;5.93;1.37;;;5.10;99.90;;;;;;5038574;28;20184;-48
2021/12/08 09:38:21;;;;;;;7.93;1.20;;;5.10;99.90;;;;;;5038271;28;20267;-48
2021/12/08 09:40:55;;;;;;;6.53;1.40;;;5.20;99.90;;;;;;5020934;28;20176;-48
2021/12/08 09:43:46;;;;;;;5.67;1.67;;;5.30;99.90;;;;;;5039149;28;20188;-47
2021/12/08 09:46:18;;;;;;;4.77;1.27;;;5.30;99.90;;;;;;5038982;28;20510;-47
2021/12/08 09:48:46;;;;;;;2.57;1.00;;;5.30;99.90;;;;;;5038458;28;20172;-47
2021/12/08 09:51:14;;;;;;;9.60;1.47;;;5.40;99.90;;;;;;5038638;28;20228;-48
2021/12/08 09:53:43;;;;;;;6.60;1.97;;;5.50;99.90;;;;;;5039028;28;20757;-46
2021/12/08 09:56:09;;;;;;;6.17;1.57;;;5.50;99.90;;;;;;5021113;28;20638;-46
2021/12/08 09:58:37;;;;;;;3.90;0.90;;;5.50;99.90;;;;;;5039169;28;20237;-48
2021/12/08 10:01:04;;;;;;;7.20;1.53;;;5.50;99.90;;;;;;5038353;28;20204;-47
2021/12/08 10:03:32;;;;;;;7.37;1.50;;;5.60;99.90;;;;;;5038521;28;20544;-48
2021/12/08 10:05:59;;;;;;;13.33;1.83;;;5.60;99.90;;;;;;5038782;28;20170;-47
2021/12/08 10:08:25;;;;;;;5.30;1.27;;;5.60;99.90;;;;;;5027332;28;20227;-48
2021/12/08 10:10:51;;;;;;;4.73;1.23;;;5.70;99.90;;;;;;5038581;28;20176;-48
2021/12/08 10:13:17;;;;;;;7.83;1.57;;;5.70;99.90;;;;;;5038789;28;20708;-47
2021/12/08 10:15:43;;;;;;;5.53;1.33;;;5.70;99.90;;;;;;5038763;28;20291;-48
2021/12/08 10:18:09;;;;;;;6.37;1.30;;;5.60;99.90;;;;;;5039166;28;20201;-47
2021/12/08 10:20:51;;;;;;;7.83;1.40;;;5.70;99.90;;;;;;5037994;28;20177;-47
2021/12/08 10:23:27;;;;;;;7.83;1.77;;;5.70;99.90;;;;;;5037732;28;20157;-47
2021/12/08 10:25:59;;;;;;;13.20;2.03;;;5.80;99.90;;;;;;5036813;28;20173;-47
2021/12/08 10:28:33;;;;;;;7.23;1.50;;;5.80;99.90;;;;;;5036453;28;20176;-47
2021/12/08 10:31:28;;;;;;;6.53;1.20;;;5.90;99.90;;;;;;5037583;28;20196;-46
2021/12/08 10:34:21;;;;;;;7.70;1.40;;;5.90;99.90;;;;;;5038276;28;20169;-48
2021/12/08 10:36:56;;;;;;;6.67;1.33;;;5.90;99.90;;;;;;5037261;28;20168;-48
2021/12/08 10:39:29;;;;;;;6.83;1.40;;;6.00;99.90;;;;;;5037109;28;20203;-47
2021/12/08 10:42:02;;;;;;;7.37;1.30;;;6.00;99.90;;;;;;5037071;28;20200;-47
2021/12/08 10:44:52;;;;;;;6.47;1.40;;;6.00;99.90;;;;;;5036437;28;20170;-46
2021/12/08 10:47:32;;;;;;;7.93;1.43;;;6.00;99.90;;;;;;5037360;28;20164;-47
2021/12/08 10:56:24;;;;;;;7.33;1.80;;;6.10;99.90;;;;;;5037801;28;20596;-48
2021/12/08 10:58:50;;;;;;;4.97;1.80;;;6.20;99.90;;;;;;5036378;28;20212;-47
2021/12/08 11:01:23;;;;;;;6.63;1.80;;;6.20;99.90;;;;;;5035626;28;20212;-47
2021/12/08 11:03:50;;;;;;;7.27;2.27;;;6.20;99.90;;;;;;5036922;28;20572;-47
2021/12/08 11:06:18;;;;;;;5.77;2.60;;;6.30;99.90;;;;;;5036505;28;20537;-47
2021/12/08 11:08:47;;;;;;;8.10;2.60;;;6.30;99.90;;;;;;5036801;28;20684;-48
2021/12/08 11:11:25;;;;;;;5.77;2.40;;;6.30;99.90;;;;;;5036604;28;20251;-47
2021/12/08 11:14:04;;;;;;;9.07;2.40;;;6.30;99.90;;;;;;5018915;28;20181;-47
2021/12/08 11:16:33;;;;;;;10.57;3.00;;;6.30;99.90;;;;;;5036442;28;20259;-49
2021/12/08 11:19:01;;;;;;;7.53;2.27;;;6.40;99.90;;;;;;5036252;28;20202;-47
2021/12/08 11:21:36;;;;;;;7.63;3.20;;;6.40;99.90;;;;;;5036067;28;20193;-48
2021/12/08 11:24:05;;;;;;;6.63;2.47;;;6.40;99.90;;;;;;5036669;28;20207;-46
2021/12/08 11:26:37;;;;;;;10.47;2.40;;;6.40;99.90;;;;;;5035807;28;20174;-47
2021/12/08 11:29:03;;;;;;;6.60;1.40;;;6.50;99.90;;;;;;5018509;28;20188;-48
2021/12/08 11:31:51;;;;;;;4.57;1.50;;;6.50;99.90;;;;;;5035850;28;20198;-47
2021/12/08 11:34:26;;;;;;;8.83;1.93;;;6.50;99.90;;;;;;5035959;28;20168;-47
2021/12/08 11:36:57;;;;;;;5.60;1.57;;;6.60;99.90;;;;;;5035748;28;20262;-47
2021/12/08 11:39:36;;;;;;;7.33;1.53;;;6.60;99.90;;;;;;5035852;28;20257;-47
2021/12/08 11:42:16;;;;;;;5.90;1.57;;;6.70;99.90;;;;;;5018625;28;20205;-47
2021/12/08 11:44:45;;;;;;;4.60;1.37;;;6.70;99.90;;;;;;5035473;28;20243;-47
2021/12/08 11:47:15;;;;;;;6.60;1.47;;;6.80;99.90;;;;;;5035303;28;20183;-47
2021/12/08 11:49:44;;;;;;;6.97;1.30;;;6.80;99.90;;;;;;5035869;28;20227;-48
2021/12/08 11:52:15;;;;;;;4.33;1.30;;;7.00;99.90;;;;;;5035721;28;20237;-47
2021/12/08 11:55:00;;;;;;;5.37;1.47;;;7.10;99.90;;;;;;5036275;28;20592;-45
2021/12/08 11:57:33;;;;;;;6.07;1.60;;;7.20;99.90;;;;;;5018065;28;20265;-47
2021/12/08 12:00:21;;;;;;;5.17;1.33;;;7.30;99.90;;;;;;5036309;28;20516;-47
2021/12/08 12:02:58;;;;;;;4.30;1.43;;;7.40;99.90;;;;;;5036679;28;20196;-47
2021/12/08 12:05:25;;;;;;;5.03;1.67;;;7.50;99.90;;;;;;5036341;28;20513;-46
2021/12/08 12:07:51;;;;;;;7.57;1.67;;;7.50;99.90;;;;;;5036136;28;20198;-47
2021/12/08 12:10:20;;;;;;;3.90;1.13;;;7.60;99.90;;;;;;5036071;28;20186;-46
2021/12/08 12:12:46;;;;;;;4.07;1.50;;;7.60;99.90;;;;;;5035753;28;20217;-48
2021/12/08 12:15:15;;;;;;;7.80;1.43;;;7.60;99.90;;;;;;5036399;28;20188;-46
2021/12/08 12:17:43;;;;;;;6.83;1.70;;;7.60;99.90;;;;;;5036913;28;20215;-47
2021/12/08 12:20:25;;;;;;;6.03;1.53;;;7.60;99.90;;;;;;5026640;28;20191;-47
2021/12/08 12:23:20;;;;;;;4.73;1.30;;;7.60;99.90;;;;;;5043082;28;20204;-46
2021/12/08 12:26:01;;;;;;;6.07;1.70;;;7.60;99.90;;;;;;5036434;28;20168;-47
2021/12/08 12:28:38;;;;;;;5.20;1.57;;;7.60;99.90;;;;;;5036969;28;20204;-47
2021/12/08 12:31:19;;;;;;;6.10;1.80;;;7.50;99.90;;;;;;5036115;28;20209;-47
2021/12/08 12:33:45;;;;;;;6.00;1.57;;;7.60;99.90;;;;;;5036521;28;20167;-46
2021/12/08 12:36:27;;;;;;;5.50;1.40;;;7.80;99.90;;;;;;5036213;28;20654;-47
2021/12/08 12:39:09;;;;;;;6.00;1.30;;;7.90;99.90;;;;;;5036037;28;20197;-47
2021/12/08 12:41:35;;;;;;;2.93;1.10;;;8.00;99.90;;;;;;5036491;28;20203;-46
2021/12/08 12:44:17;;;;;;;3.37;1.57;;;8.10;99.90;;;;;;5035887;28;20189;-47
2021/12/08 12:47:19;;;;;;;6.87;1.57;;;8.10;99.90;;;;;;5035902;28;20169;-47
2021/12/08 12:49:48;;;;;;;5.37;2.17;;;8.10;99.90;;;;;;5036033;28;20165;-47
2021/12/08 12:52:16;;;;;;;4.50;1.77;;;8.10;99.90;;;;;;5035470;28;20240;-47
2021/12/08 12:54:43;;;;;;;4.57;2.00;;;8.10;99.90;;;;;;5035331;28;20208;-48
2021/12/08 12:57:10;;;;;;;4.50;2.27;;;8.00;99.90;;;;;;5035269;28;20228;-48
2021/12/08 12:59:49;;;;;;;6.93;2.63;;;7.90;99.90;;;;;;5017552;28;20181;-48
2021/12/08 13:02:24;;;;;;;5.70;2.40;;;7.80;99.90;;;;;;5016945;28;20209;-46
2021/12/08 13:05:02;;;;;;;6.07;2.03;;;7.70;99.90;;;;;;5033602;28;20518;-40
2021/12/08 13:07:29;;;;;;;6.00;1.40;;;7.70;99.90;;;;;;5033308;28;20169;-40
2021/12/08 13:10:13;;;;;;;5.33;1.37;;;7.60;99.90;;;;;;5033287;28;20165;-41
2021/12/08 13:12:40;;;;;;;9.60;1.30;;;7.70;99.90;;;;;;5015283;28;20235;-41
2021/12/08 13:15:19;;;;;;;3.73;1.10;;;7.70;99.90;;;;;;5032903;28;20643;-43
2021/12/08 13:18:15;;;;;;;2.77;1.43;;;7.70;99.90;;;;;;5032844;28;20208;-41
2021/12/08 13:20:42;;;;;;;6.00;1.30;;;7.70;99.90;;;;;;5031771;28;20537;-41
2021/12/08 13:23:10;;;;;;;6.93;1.17;;;7.60;99.90;;;;;;5032843;28;20185;-44
2021/12/08 13:28:20;;;;;;;4.80;1.00;;;7.60;99.90;;;;;;5036861;28;20649;-40
2021/12/08 13:31:04;;;;;;;4.87;1.00;;;7.60;99.90;;;;;;5036512;28;20232;-40
2021/12/08 13:33:37;;;;;;;4.00;1.20;;;7.60;99.90;;;;;;5036448;28;20161;-43
2021/12/08 13:36:25;;;;;;;4.47;1.13;;;7.50;99.90;;;;;;5036656;28;20255;-41
2021/12/08 13:38:53;;;;;;;4.47;1.10;;;7.50;99.90;;;;;;5024038;28;20220;-40
2021/12/08 13:41:20;;;;;;;5.50;0.97;;;7.50;99.90;;;;;;5036677;28;20201;-42
2021/12/08 13:43:49;;;;;;;4.93;1.10;;;7.60;99.90;;;;;;5036634;28;20180;-43
2021/12/08 13:46:48;;;;;;;5.47;1.40;;;7.50;99.90;;;;;;5036166;28;20542;-42
2021/12/08 13:49:26;;;;;;;3.97;1.17;;;7.60;99.90;;;;;;4993263;28;20557;-40
2021/12/08 13:52:07;;;;;;;4.10;1.17;;;7.60;99.90;;;;;;5036372;28;20192;-43
2021/12/08 13:54:36;;;;;;;3.03;1.10;;;7.60;99.90;;;;;;5036001;28;20169;-42
2021/12/08 13:57:05;;;;;;;6.23;1.03;;;7.60;99.90;;;;;;5036163;28;20184;-43
2021/12/08 13:59:55;;;;;;;4.47;1.17;;;7.60;99.90;;;;;;5035707;28;20631;-43
2021/12/08 14:02:33;;;;;;;6.77;1.67;;;7.50;99.90;;;;;;5036084;28;20200;-40